sensor_id;sensor_type;location;lat;lon;timestamp;pressure;altitude;pressure_sealevel;temperature;humidity
34658;BME280;20865;43.312;27.152;2023-07-13T00:00:27;100408.65;;;31.54;39.10
34658;BME280;20865;43.312;27.152;2023-07-13T00:02:54;100415.38;;;31.51;39.22
34658;BME280;20865;43.312;27.152;2023-07-13T00:05:23;100410.77;;;31.44;39.34
34658;BME280;20865;43.312;27.152;2023-07-13T00:07:51;100407.84;;;31.41;39.41
34658;BME280;20865;43.312;27.152;2023-07-13T00:10:19;100407.70;;;31.39;39.55
34658;BME280;20865;43.312;27.152;2023-07-13T00:12:47;100407.67;;;31.43;39.74
34658;BME280;20865;43.312;27.152;2023-07-13T00:15:18;100404.91;;;31.43;39.44
34658;BME280;20865;43.312;27.152;2023-07-13T00:17:54;100409.38;;;31.44;39.26
34658;BME280;20865;43.312;27.152;2023-07-13T00:20:23;100399.92;;;31.42;39.19
34658;BME280;20865;43.312;27.152;2023-07-13T00:22:52;100401.46;;;31.41;39.15
34658;BME280;20865;43.312;27.152;2023-07-13T00:25:21;100397.52;;;31.39;39.19
34658;BME280;20865;43.312;27.152;2023-07-13T00:27:51;100392.17;;;31.34;39.27
34658;BME280;20865;43.312;27.152;2023-07-13T00:30:19;100393.22;;;31.33;39.38
34658;BME280;20865;43.312;27.152;2023-07-13T00:32:46;100395.12;;;31.28;39.55
34658;BME280;20865;43.312;27.152;2023-07-13T00:35:15;100388.72;;;31.27;39.64
34658;BME280;20865;43.312;27.152;2023-07-13T00:37:43;100389.09;;;31.24;39.71
34658;BME280;20865;43.312;27.152;2023-07-13T00:40:13;100386.69;;;31.21;39.56
34658;BME280;20865;43.312;27.152;2023-07-13T00:42:41;100381.50;;;31.22;39.54
34658;BME280;20865;43.312;27.152;2023-07-13T00:47:44;100379.45;;;31.16;39.76
34658;BME280;20865;43.312;27.152;2023-07-13T00:50:13;100376.52;;;31.14;39.81
34658;BME280;20865;43.312;27.152;2023-07-13T00:52:44;100379.14;;;31.11;39.80
34658;BME280;20865;43.312;27.152;2023-07-13T00:55:13;100379.48;;;31.08;39.90
34658;BME280;20865;43.312;27.152;2023-07-13T00:57:42;100377.77;;;31.03;40.05
34658;BME280;20865;43.312;27.152;2023-07-13T01:00:11;100380.19;;;31.02;40.15
34658;BME280;20865;43.312;27.152;2023-07-13T01:02:42;100373.64;;;30.99;40.18
34658;BME280;20865;43.312;27.152;2023-07-13T01:05:16;100369.34;;;30.96;40.29
34658;BME280;20865;43.312;27.152;2023-07-13T01:07:42;100377.80;;;30.95;40.29
34658;BME280;20865;43.312;27.152;2023-07-13T01:10:13;100365.41;;;30.91;40.25
34658;BME280;20865;43.312;27.152;2023-07-13T01:12:41;100367.66;;;30.87;40.38
34658;BME280;20865;43.312;27.152;2023-07-13T01:15:40;100370.08;;;30.86;40.52
34658;BME280;20865;43.312;27.152;2023-07-13T01:18:10;100355.08;;;30.84;40.60
34658;BME280;20865;43.312;27.152;2023-07-13T01:20:38;100368.20;;;30.82;40.62
34658;BME280;20865;43.312;27.152;2023-07-13T01:23:11;100359.05;;;30.78;40.50
34658;BME280;20865;43.312;27.152;2023-07-13T01:25:39;100358.04;;;30.79;40.25
34658;BME280;20865;43.312;27.152;2023-07-13T01:28:08;100352.52;;;30.79;40.10
34658;BME280;20865;43.312;27.152;2023-07-13T01:30:37;100355.44;;;30.77;40.10
34658;BME280;20865;43.312;27.152;2023-07-13T01:33:09;100352.33;;;30.72;40.05
34658;BME280;20865;43.312;27.152;2023-07-13T01:35:36;100348.20;;;30.72;39.95
34658;BME280;20865;43.312;27.152;2023-07-13T01:38:05;100351.11;;;30.71;39.95
34658;BME280;20865;43.312;27.152;2023-07-13T01:40:32;100346.47;;;30.67;40.01
34658;BME280;20865;43.312;27.152;2023-07-13T01:43:00;100359.92;;;30.66;39.97
34658;BME280;20865;43.312;27.152;2023-07-13T01:45:29;100351.99;;;30.63;39.90
34658;BME280;20865;43.312;27.152;2023-07-13T01:47:56;100353.72;;;30.60;39.95
34658;BME280;20865;43.312;27.152;2023-07-13T01:50:25;100351.81;;;30.60;39.97
34658;BME280;20865;43.312;27.152;2023-07-13T01:52:53;100349.92;;;30.57;40.04
34658;BME280;20865;43.312;27.152;2023-07-13T01:55:21;100355.63;;;30.55;40.06
34658;BME280;20865;43.312;27.152;2023-07-13T01:57:48;100359.77;;;30.55;40.21
34658;BME280;20865;43.312;27.152;2023-07-13T02:00:16;100353.74;;;30.52;40.41
34658;BME280;20865;43.312;27.152;2023-07-13T02:02:44;100343.23;;;30.51;40.47
34658;BME280;20865;43.312;27.152;2023-07-13T02:05:13;100340.98;;;30.47;40.52
34658;BME280;20865;43.312;27.152;2023-07-13T02:07:41;100353.39;;;30.43;40.55
34658;BME280;20865;43.312;27.152;2023-07-13T02:10:10;100342.72;;;30.40;40.54
34658;BME280;20865;43.312;27.152;2023-07-13T02:12:38;100345.81;;;30.36;40.56
34658;BME280;20865;43.312;27.152;2023-07-13T02:15:06;100351.17;;;30.34;40.75
34658;BME280;20865;43.312;27.152;2023-07-13T02:17:35;100353.41;;;30.34;40.90
34658;BME280;20865;43.312;27.152;2023-07-13T02:20:04;100356.50;;;30.35;41.06
34658;BME280;20865;43.312;27.152;2023-07-13T02:22:34;100352.04;;;30.30;40.96
34658;BME280;20865;43.312;27.152;2023-07-13T02:25:01;100352.38;;;30.27;40.69
34658;BME280;20865;43.312;27.152;2023-07-13T02:27:28;100354.09;;;30.24;40.69
34658;BME280;20865;43.312;27.152;2023-07-13T02:29:56;100346.17;;;30.25;40.69
34658;BME280;20865;43.312;27.152;2023-07-13T02:32:23;100346.50;;;30.26;40.69
34658;BME280;20865;43.312;27.152;2023-07-13T02:34:52;100349.11;;;30.24;40.77
34658;BME280;20865;43.312;27.152;2023-07-13T02:37:20;100356.67;;;30.22;40.88
34658;BME280;20865;43.312;27.152;2023-07-13T02:39:48;100356.33;;;30.25;40.94
34658;BME280;20865;43.312;27.152;2023-07-13T02:42:15;100362.36;;;30.24;41.04
34658;BME280;20865;43.312;27.152;2023-07-13T02:44:43;100364.78;;;30.23;40.95
34658;BME280;20865;43.312;27.152;2023-07-13T02:47:10;100363.75;;;30.20;41.00
34658;BME280;20865;43.312;27.152;2023-07-13T02:49:39;100359.22;;;30.15;40.86
34658;BME280;20865;43.312;27.152;2023-07-13T02:52:07;100363.88;;;30.14;40.59
34658;BME280;20865;43.312;27.152;2023-07-13T02:54:34;100367.14;;;30.14;40.68
34658;BME280;20865;43.312;27.152;2023-07-13T02:57:02;100363.35;;;30.11;40.83
34658;BME280;20865;43.312;27.152;2023-07-13T02:59:30;100360.08;;;30.11;41.02
34658;BME280;20865;43.312;27.152;2023-07-13T03:01:57;100362.16;;;30.09;41.22
34658;BME280;20865;43.312;27.152;2023-07-13T03:04:25;100364.39;;;30.06;41.37
34658;BME280;20865;43.312;27.152;2023-07-13T03:06:53;100364.73;;;30.03;41.30
34658;BME280;20865;43.312;27.152;2023-07-13T03:09:22;100362.98;;;30.02;41.34
34658;BME280;20865;43.312;27.152;2023-07-13T03:11:51;100362.32;;;30.00;41.43
34658;BME280;20865;43.312;27.152;2023-07-13T03:14:18;100367.13;;;29.98;41.43
34658;BME280;20865;43.312;27.152;2023-07-13T03:16:46;100358.86;;;29.98;41.30
34658;BME280;20865;43.312;27.152;2023-07-13T03:19:14;100366.11;;;29.99;41.24
34658;BME280;20865;43.312;27.152;2023-07-13T03:21:42;100368.68;;;30.00;41.30
34658;BME280;20865;43.312;27.152;2023-07-13T03:24:09;100370.24;;;30.03;41.42
34658;BME280;20865;43.312;27.152;2023-07-13T03:26:37;100363.88;;;30.02;41.53
34658;BME280;20865;43.312;27.152;2023-07-13T03:29:05;100376.61;;;30.03;41.58
34658;BME280;20865;43.312;27.152;2023-07-13T03:31:35;100373.52;;;30.02;41.56
34658;BME280;20865;43.312;27.152;2023-07-13T03:34:03;100376.94;;;30.08;41.57
34658;BME280;20865;43.312;27.152;2023-07-13T03:36:32;100373.67;;;30.05;41.64
34658;BME280;20865;43.312;27.152;2023-07-13T03:39:01;100368.86;;;30.11;41.60
34658;BME280;20865;43.312;27.152;2023-07-13T03:41:29;100374.70;;;30.16;41.56
34658;BME280;20865;43.312;27.152;2023-07-13T03:43:58;100378.71;;;30.18;41.59
34658;BME280;20865;43.312;27.152;2023-07-13T03:46:25;100372.16;;;30.19;41.68
34658;BME280;20865;43.312;27.152;2023-07-13T03:48:53;100371.16;;;30.20;41.71
34658;BME280;20865;43.312;27.152;2023-07-13T03:51:21;100376.81;;;30.22;41.73
34658;BME280;20865;43.312;27.152;2023-07-13T03:53:52;100382.84;;;30.26;41.72
34658;BME280;20865;43.312;27.152;2023-07-13T03:56:19;100384.91;;;30.28;41.79
34658;BME280;20865;43.312;27.152;2023-07-13T03:58:49;100390.25;;;30.25;41.92
34658;BME280;20865;43.312;27.152;2023-07-13T04:01:19;100384.06;;;30.27;42.01
34658;BME280;20865;43.312;27.152;2023-07-13T04:03:51;100392.32;;;30.31;42.06
34658;BME280;20865;43.312;27.152;2023-07-13T04:06:31;100388.38;;;30.34;42.18
34658;BME280;20865;43.312;27.152;2023-07-13T04:09:06;100383.86;;;30.37;42.24
34658;BME280;20865;43.312;27.152;2023-07-13T04:11:34;100381.13;;;30.41;42.28
34658;BME280;20865;43.312;27.152;2023-07-13T04:14:05;100382.50;;;30.45;42.45
34658;BME280;20865;43.312;27.152;2023-07-13T04:16:33;100381.80;;;30.47;42.62
34658;BME280;20865;43.312;27.152;2023-07-13T04:19:01;100386.81;;;30.52;42.71
34658;BME280;20865;43.312;27.152;2023-07-13T04:21:30;100391.27;;;30.57;42.76
34658;BME280;20865;43.312;27.152;2023-07-13T04:23:58;100392.64;;;30.61;42.76
34658;BME280;20865;43.312;27.152;2023-07-13T04:26:26;100395.39;;;30.61;42.55
34658;BME280;20865;43.312;27.152;2023-07-13T04:28:53;100396.80;;;30.65;42.45
34658;BME280;20865;43.312;27.152;2023-07-13T04:31:21;100389.18;;;30.71;42.26
34658;BME280;20865;43.312;27.152;2023-07-13T04:33:49;100391.06;;;30.75;42.33
34658;BME280;20865;43.312;27.152;2023-07-13T04:36:18;100393.18;;;30.77;42.49
34658;BME280;20865;43.312;27.152;2023-07-13T04:38:45;100392.83;;;30.80;42.49
34658;BME280;20865;43.312;27.152;2023-07-13T04:41:13;100393.00;;;30.87;42.65
34658;BME280;20865;43.312;27.152;2023-07-13T04:43:42;100398.30;;;30.92;42.66
34658;BME280;20865;43.312;27.152;2023-07-13T04:46:12;100401.94;;;30.97;42.55
34658;BME280;20865;43.312;27.152;2023-07-13T04:48:40;100397.61;;;30.98;42.37
34658;BME280;20865;43.312;27.152;2023-07-13T04:51:10;100403.81;;;31.04;42.45
34658;BME280;20865;43.312;27.152;2023-07-13T04:53:38;100399.63;;;31.13;42.56
34658;BME280;20865;43.312;27.152;2023-07-13T04:56:05;100395.66;;;31.19;42.54
34658;BME280;20865;43.312;27.152;2023-07-13T04:58:33;100389.93;;;31.29;42.37
34658;BME280;20865;43.312;27.152;2023-07-13T05:01:03;100393.02;;;31.42;42.36
34658;BME280;20865;43.312;27.152;2023-07-13T05:03:31;100394.68;;;31.51;42.22
34658;BME280;20865;43.312;27.152;2023-07-13T05:06:00;100393.25;;;31.64;42.04
34658;BME280;20865;43.312;27.152;2023-07-13T05:08:28;100390.08;;;31.75;42.14
34658;BME280;20865;43.312;27.152;2023-07-13T05:10:56;100397.81;;;31.88;42.04
34658;BME280;20865;43.312;27.152;2023-07-13T05:13:23;100398.44;;;31.98;41.93
34658;BME280;20865;43.312;27.152;2023-07-13T05:16:00;100395.25;;;32.09;41.84
34658;BME280;20865;43.312;27.152;2023-07-13T05:18:28;100401.02;;;32.22;42.00
34658;BME280;20865;43.312;27.152;2023-07-13T05:21:02;100400.87;;;32.39;41.90
34658;BME280;20865;43.312;27.152;2023-07-13T05:23:31;100416.34;;;32.52;41.89
34658;BME280;20865;43.312;27.152;2023-07-13T05:25:59;100408.28;;;32.65;41.34
34658;BME280;20865;43.312;27.152;2023-07-13T05:28:28;100412.70;;;32.75;41.53
34658;BME280;20865;43.312;27.152;2023-07-13T05:30:55;100408.23;;;32.88;41.22
34658;BME280;20865;43.312;27.152;2023-07-13T05:33:24;100406.57;;;33.02;40.97
34658;BME280;20865;43.312;27.152;2023-07-13T05:35:52;100407.27;;;33.15;40.86
34658;BME280;20865;43.312;27.152;2023-07-13T05:38:19;100411.14;;;33.25;40.42
34658;BME280;20865;43.312;27.152;2023-07-13T05:40:47;100409.05;;;33.27;40.50
34658;BME280;20865;43.312;27.152;2023-07-13T05:43:15;100407.56;;;33.50;40.20
34658;BME280;20865;43.312;27.152;2023-07-13T05:45:43;100409.13;;;33.63;40.26
34658;BME280;20865;43.312;27.152;2023-07-13T05:48:10;100415.02;;;33.75;40.33
34658;BME280;20865;43.312;27.152;2023-07-13T05:50:38;100414.65;;;33.88;39.74
34658;BME280;20865;43.312;27.152;2023-07-13T05:53:05;100416.95;;;33.85;38.71
34658;BME280;20865;43.312;27.152;2023-07-13T05:55:33;100423.08;;;34.06;39.13
34658;BME280;20865;43.312;27.152;2023-07-13T05:58:01;100431.33;;;34.10;38.80
34658;BME280;20865;43.312;27.152;2023-07-13T06:00:29;100427.92;;;34.19;39.02
34658;BME280;20865;43.312;27.152;2023-07-13T06:02:56;100431.69;;;34.32;39.17
34658;BME280;20865;43.312;27.152;2023-07-13T06:05:25;100424.98;;;34.52;38.86
34658;BME280;20865;43.312;27.152;2023-07-13T06:07:53;100423.29;;;34.69;39.08
34658;BME280;20865;43.312;27.152;2023-07-13T06:10:21;100422.16;;;34.84;39.07
34658;BME280;20865;43.312;27.152;2023-07-13T06:12:48;100419.48;;;34.98;38.87
34658;BME280;20865;43.312;27.152;2023-07-13T06:15:16;100419.48;;;35.08;38.33
34658;BME280;20865;43.312;27.152;2023-07-13T06:17:53;100418.59;;;35.19;38.11
34658;BME280;20865;43.312;27.152;2023-07-13T06:20:19;100416.75;;;35.33;37.79
34658;BME280;20865;43.312;27.152;2023-07-13T06:22:46;100416.14;;;35.54;37.08
34658;BME280;20865;43.312;27.152;2023-07-13T06:25:14;100405.66;;;35.57;36.61
34658;BME280;20865;43.312;27.152;2023-07-13T06:27:43;100413.01;;;35.71;37.12
34658;BME280;20865;43.312;27.152;2023-07-13T06:30:13;100406.53;;;35.81;37.01
34658;BME280;20865;43.312;27.152;2023-07-13T06:32:41;100407.30;;;35.92;37.18
34658;BME280;20865;43.312;27.152;2023-07-13T06:35:09;100407.03;;;36.05;36.94
34658;BME280;20865;43.312;27.152;2023-07-13T06:37:38;100407.57;;;36.04;36.28
34658;BME280;20865;43.312;27.152;2023-07-13T06:40:07;100405.57;;;36.22;36.71
34658;BME280;20865;43.312;27.152;2023-07-13T06:42:35;100403.34;;;36.28;37.28
34658;BME280;20865;43.312;27.152;2023-07-13T06:45:02;100401.65;;;36.34;36.87
34658;BME280;20865;43.312;27.152;2023-07-13T06:47:30;100407.19;;;36.40;37.03
34658;BME280;20865;43.312;27.152;2023-07-13T06:49:58;100396.65;;;36.53;36.95
34658;BME280;20865;43.312;27.152;2023-07-13T06:52:25;100401.05;;;36.65;37.32
34658;BME280;20865;43.312;27.152;2023-07-13T06:54:53;100397.27;;;36.75;37.11
34658;BME280;20865;43.312;27.152;2023-07-13T06:57:21;100397.27;;;36.88;36.80
34658;BME280;20865;43.312;27.152;2023-07-13T06:59:49;100394.83;;;36.89;37.20
34658;BME280;20865;43.312;27.152;2023-07-13T07:02:16;100398.55;;;37.06;36.87
34658;BME280;20865;43.312;27.152;2023-07-13T07:04:44;100392.78;;;37.14;36.25
34658;BME280;20865;43.312;27.152;2023-07-13T07:07:11;100403.11;;;37.29;36.07
34658;BME280;20865;43.312;27.152;2023-07-13T07:09:39;100405.98;;;37.38;35.18
34658;BME280;20865;43.312;27.152;2023-07-13T07:12:07;100401.34;;;37.48;36.23
34658;BME280;20865;43.312;27.152;2023-07-13T07:14:35;100388.66;;;37.59;36.51
34658;BME280;20865;43.312;27.152;2023-07-13T07:17:02;100401.92;;;37.70;35.99
34658;BME280;20865;43.312;27.152;2023-07-13T07:19:30;100405.77;;;37.69;36.26
34658;BME280;20865;43.312;27.152;2023-07-13T07:21:58;100405.80;;;37.85;36.30
34658;BME280;20865;43.312;27.152;2023-07-13T07:24:26;100402.13;;;37.98;35.36
34658;BME280;20865;43.312;27.152;2023-07-13T07:26:53;100398.62;;;38.09;35.76
34658;BME280;20865;43.312;27.152;2023-07-13T07:29:21;100395.45;;;38.14;33.98
34658;BME280;20865;43.312;27.152;2023-07-13T07:31:50;100397.61;;;38.28;34.22
34658;BME280;20865;43.312;27.152;2023-07-13T07:34:18;100384.17;;;38.34;33.58
34658;BME280;20865;43.312;27.152;2023-07-13T07:36:46;100390.29;;;38.34;34.90
34658;BME280;20865;43.312;27.152;2023-07-13T07:39:13;100385.64;;;38.44;33.96
34658;BME280;20865;43.312;27.152;2023-07-13T07:41:41;100387.05;;;38.53;33.98
34658;BME280;20865;43.312;27.152;2023-07-13T07:44:09;100388.97;;;38.68;33.60
34658;BME280;20865;43.312;27.152;2023-07-13T07:46:36;100386.09;;;38.81;33.40
34658;BME280;20865;43.312;27.152;2023-07-13T07:49:04;100386.55;;;38.88;33.89
34658;BME280;20865;43.312;27.152;2023-07-13T07:51:32;100381.45;;;38.94;32.42
34658;BME280;20865;43.312;27.152;2023-07-13T07:53:59;100382.72;;;39.16;32.63
34658;BME280;20865;43.312;27.152;2023-07-13T07:56:27;100378.98;;;39.22;32.27
34658;BME280;20865;43.312;27.152;2023-07-13T07:58:55;100377.92;;;39.33;31.94
34658;BME280;20865;43.312;27.152;2023-07-13T08:01:24;100372.05;;;39.41;31.35
34658;BME280;20865;43.312;27.152;2023-07-13T08:03:54;100368.16;;;39.51;30.40
34658;BME280;20865;43.312;27.152;2023-07-13T08:06:24;100365.79;;;39.66;31.40
34658;BME280;20865;43.312;27.152;2023-07-13T08:09:00;100369.21;;;39.77;32.90
34658;BME280;20865;43.312;27.152;2023-07-13T08:11:23;100367.97;;;39.83;30.95
34658;BME280;20865;43.312;27.152;2023-07-13T08:13:51;100366.53;;;39.92;31.19
34658;BME280;20865;43.312;27.152;2023-07-13T08:16:20;100366.51;;;40.01;31.68
34658;BME280;20865;43.312;27.152;2023-07-13T08:18:54;100361.79;;;40.13;31.60
34658;BME280;20865;43.312;27.152;2023-07-13T08:21:21;100362.53;;;40.30;32.07
34658;BME280;20865;43.312;27.152;2023-07-13T08:23:49;100362.36;;;40.34;32.16
34658;BME280;20865;43.312;27.152;2023-07-13T08:26:16;100358.20;;;40.45;31.09
34658;BME280;20865;43.312;27.152;2023-07-13T08:28:44;100346.27;;;40.50;30.83
34658;BME280;20865;43.312;27.152;2023-07-13T08:31:12;100348.54;;;40.62;30.63
34658;BME280;20865;43.312;27.152;2023-07-13T08:33:40;100351.00;;;40.70;29.46
34658;BME280;20865;43.312;27.152;2023-07-13T08:36:12;100346.00;;;40.84;28.50
34658;BME280;20865;43.312;27.152;2023-07-13T08:38:41;100349.82;;;40.92;30.13
34658;BME280;20865;43.312;27.152;2023-07-13T08:41:17;100348.06;;;41.01;30.20
34658;BME280;20865;43.312;27.152;2023-07-13T08:43:56;100350.38;;;41.15;28.66
34658;BME280;20865;43.312;27.152;2023-07-13T08:46:44;100357.64;;;41.28;27.66
34658;BME280;20865;43.312;27.152;2023-07-13T08:51:42;100350.07;;;41.40;27.12
34658;BME280;20865;43.312;27.152;2023-07-13T08:54:23;100354.26;;;41.52;26.72
34658;BME280;20865;43.312;27.152;2023-07-13T08:56:51;100350.67;;;41.54;28.02
34658;BME280;20865;43.312;27.152;2023-07-13T08:59:24;100342.27;;;41.69;27.92
34658;BME280;20865;43.312;27.152;2023-07-13T09:02:15;100344.71;;;41.79;27.61
34658;BME280;20865;43.312;27.152;2023-07-13T09:04:49;100345.06;;;41.83;27.14
34658;BME280;20865;43.312;27.152;2023-07-13T09:10:23;100338.46;;;42.03;26.93
34658;BME280;20865;43.312;27.152;2023-07-13T09:15:31;100343.53;;;42.21;27.29
34658;BME280;20865;43.312;27.152;2023-07-13T09:18:02;100348.75;;;42.29;26.02
34658;BME280;20865;43.312;27.152;2023-07-13T09:20:57;100345.49;;;42.34;25.52
34658;BME280;20865;43.312;27.152;2023-07-13T09:23:31;100346.73;;;42.41;25.44
34658;BME280;20865;43.312;27.152;2023-07-13T09:26:26;100338.14;;;42.48;25.65
34658;BME280;20865;43.312;27.152;2023-07-13T09:28:54;100345.49;;;42.51;25.08
34658;BME280;20865;43.312;27.152;2023-07-13T09:31:38;100340.97;;;42.50;25.28
34658;BME280;20865;43.312;27.152;2023-07-13T09:34:13;100336.34;;;42.58;25.94
34658;BME280;20865;43.312;27.152;2023-07-13T09:36:40;100338.87;;;42.60;25.99
34658;BME280;20865;43.312;27.152;2023-07-13T09:39:26;100334.95;;;42.61;25.33
34658;BME280;20865;43.312;27.152;2023-07-13T09:42:16;100328.26;;;42.62;25.15
34658;BME280;20865;43.312;27.152;2023-07-13T09:47:29;100320.38;;;42.98;25.35
34658;BME280;20865;43.312;27.152;2023-07-13T09:49:59;100314.57;;;42.85;26.25
34658;BME280;20865;43.312;27.152;2023-07-13T09:52:38;100307.64;;;42.90;25.88
34658;BME280;20865;43.312;27.152;2023-07-13T09:54:57;100300.11;;;42.93;25.83
34658;BME280;20865;43.312;27.152;2023-07-13T09:57:28;100298.47;;;42.97;25.54
34658;BME280;20865;43.312;27.152;2023-07-13T09:59:56;100298.28;;;43.04;25.75
34658;BME280;20865;43.312;27.152;2023-07-13T10:02:35;100293.83;;;43.08;25.98
34658;BME280;20865;43.312;27.152;2023-07-13T10:05:13;100291.11;;;43.13;24.97
34658;BME280;20865;43.312;27.152;2023-07-13T10:07:38;100285.81;;;43.17;25.59
34658;BME280;20865;43.312;27.152;2023-07-13T10:10:14;100280.20;;;43.17;24.27
34658;BME280;20865;43.312;27.152;2023-07-13T10:12:37;100285.41;;;43.27;24.41
34658;BME280;20865;43.312;27.152;2023-07-13T10:15:21;100285.13;;;43.29;24.81
34658;BME280;20865;43.312;27.152;2023-07-13T10:17:51;100284.61;;;43.32;24.12
34658;BME280;20865;43.312;27.152;2023-07-13T10:20:21;100279.04;;;43.37;24.62
34658;BME280;20865;43.312;27.152;2023-07-13T10:22:58;100279.92;;;43.40;24.59
34658;BME280;20865;43.312;27.152;2023-07-13T10:25:33;100279.63;;;43.39;23.85
34658;BME280;20865;43.312;27.152;2023-07-13T10:28:31;100271.39;;;43.52;25.22
34658;BME280;20865;43.312;27.152;2023-07-13T10:30:56;100273.32;;;43.51;24.20
34658;BME280;20865;43.312;27.152;2023-07-13T10:33:25;100266.47;;;43.45;23.32
34658;BME280;20865;43.312;27.152;2023-07-13T10:35:58;100261.83;;;43.53;23.23
34658;BME280;20865;43.312;27.152;2023-07-13T10:38:24;100260.50;;;43.61;23.31
34658;BME280;20865;43.312;27.152;2023-07-13T10:41:02;100263.06;;;43.65;22.46
34658;BME280;20865;43.312;27.152;2023-07-13T10:43:38;100266.20;;;43.68;22.39
34658;BME280;20865;43.312;27.152;2023-07-13T10:46:12;100265.03;;;43.64;22.54
34658;BME280;20865;43.312;27.152;2023-07-13T10:48:41;100261.17;;;43.70;22.02
34658;BME280;20865;43.312;27.152;2023-07-13T10:51:12;100267.03;;;43.69;22.02
34658;BME280;20865;43.312;27.152;2023-07-13T10:53:40;100259.23;;;43.73;22.31
34658;BME280;20865;43.312;27.152;2023-07-13T10:56:26;100267.66;;;43.73;22.05
34658;BME280;20865;43.312;27.152;2023-07-13T10:59:01;100260.11;;;43.77;22.71
34658;BME280;20865;43.312;27.152;2023-07-13T11:01:22;100259.80;;;43.75;22.61
34658;BME280;20865;43.312;27.152;2023-07-13T11:04:03;100267.70;;;43.79;22.77
34658;BME280;20865;43.312;27.152;2023-07-13T11:06:38;100263.17;;;43.75;22.01
34658;BME280;20865;43.312;27.152;2023-07-13T11:09:30;100259.12;;;43.63;21.89
34658;BME280;20865;43.312;27.152;2023-07-13T11:11:48;100262.30;;;43.72;21.81
34658;BME280;20865;43.312;27.152;2023-07-13T11:14:31;100256.98;;;43.75;22.18
34658;BME280;20865;43.312;27.152;2023-07-13T11:16:59;100251.73;;;43.84;22.23
34658;BME280;20865;43.312;27.152;2023-07-13T11:19:37;100262.48;;;43.90;22.40
34658;BME280;20865;43.312;27.152;2023-07-13T11:25:00;100249.30;;;43.90;22.06
34658;BME280;20865;43.312;27.152;2023-07-13T11:27:37;100252.95;;;43.93;22.28
34658;BME280;20865;43.312;27.152;2023-07-13T11:30:17;100253.30;;;43.99;22.07
34658;BME280;20865;43.312;27.152;2023-07-13T11:32:38;100255.23;;;43.96;22.01
34658;BME280;20865;43.312;27.152;2023-07-13T11:35:12;100257.20;;;43.96;22.54
34658;BME280;20865;43.312;27.152;2023-07-13T11:37:36;100254.86;;;43.88;22.00
34658;BME280;20865;43.312;27.152;2023-07-13T11:40:12;100246.52;;;43.95;22.29
34658;BME280;20865;43.312;27.152;2023-07-13T11:42:36;100242.55;;;43.91;22.50
34658;BME280;20865;43.312;27.152;2023-07-13T11:45:14;100256.52;;;43.86;22.92
34658;BME280;20865;43.312;27.152;2023-07-13T11:47:34;100250.61;;;43.85;22.33
34658;BME280;20865;43.312;27.152;2023-07-13T11:50:16;100247.48;;;43.82;22.59
34658;BME280;20865;43.312;27.152;2023-07-13T11:52:38;100236.36;;;43.65;22.79
34658;BME280;20865;43.312;27.152;2023-07-13T11:55:13;100243.67;;;43.63;23.28
34658;BME280;20865;43.312;27.152;2023-07-13T12:00:17;100229.70;;;43.76;23.23
34658;BME280;20865;43.312;27.152;2023-07-13T12:02:46;100230.55;;;43.74;22.96
34658;BME280;20865;43.312;27.152;2023-07-13T12:05:16;100229.73;;;43.79;23.51
34658;BME280;20865;43.312;27.152;2023-07-13T12:07:45;100217.86;;;43.71;22.79
34658;BME280;20865;43.312;27.152;2023-07-13T12:10:24;100202.16;;;43.73;23.08
34658;BME280;20865;43.312;27.152;2023-07-13T12:13:03;100198.56;;;43.80;22.96
34658;BME280;20865;43.312;27.152;2023-07-13T12:15:41;100207.18;;;43.71;23.00
34658;BME280;20865;43.312;27.152;2023-07-13T12:18:13;100199.03;;;43.72;23.01
34658;BME280;20865;43.312;27.152;2023-07-13T12:20:41;100202.47;;;43.77;23.48
34658;BME280;20865;43.312;27.152;2023-07-13T12:23:27;100195.97;;;43.76;23.03
34658;BME280;20865;43.312;27.152;2023-07-13T12:25:55;100190.06;;;43.75;23.23
34658;BME280;20865;43.312;27.152;2023-07-13T12:28:31;100182.19;;;43.74;23.20
34658;BME280;20865;43.312;27.152;2023-07-13T12:31:02;100185.39;;;43.88;22.88
34658;BME280;20865;43.312;27.152;2023-07-13T12:33:31;100174.66;;;43.80;23.31
34658;BME280;20865;43.312;27.152;2023-07-13T12:36:01;100166.16;;;43.75;23.58
34658;BME280;20865;43.312;27.152;2023-07-13T12:38:31;100164.98;;;43.68;23.18
34658;BME280;20865;43.312;27.152;2023-07-13T12:41:00;100165.85;;;43.71;22.57
34658;BME280;20865;43.312;27.152;2023-07-13T12:43:33;100164.73;;;43.70;22.62
34658;BME280;20865;43.312;27.152;2023-07-13T12:46:17;100160.45;;;43.65;22.51
34658;BME280;20865;43.312;27.152;2023-07-13T12:48:44;100152.33;;;43.68;22.83
34658;BME280;20865;43.312;27.152;2023-07-13T12:51:14;100156.30;;;43.70;22.68
34658;BME280;20865;43.312;27.152;2023-07-13T12:53:50;100157.08;;;43.65;22.60
34658;BME280;20865;43.312;27.152;2023-07-13T12:56:24;100159.10;;;43.72;23.03
34658;BME280;20865;43.312;27.152;2023-07-13T12:59:04;100154.89;;;43.72;22.98
34658;BME280;20865;43.312;27.152;2023-07-13T13:01:34;100153.48;;;43.70;22.82
34658;BME280;20865;43.312;27.152;2023-07-13T13:04:05;100144.43;;;43.63;23.21
34658;BME280;20865;43.312;27.152;2023-07-13T13:06:35;100144.95;;;43.62;23.44
34658;BME280;20865;43.312;27.152;2023-07-13T13:09:05;100142.94;;;43.55;22.99
34658;BME280;20865;43.312;27.152;2023-07-13T13:11:35;100140.97;;;43.53;22.97
34658;BME280;20865;43.312;27.152;2023-07-13T13:14:02;100130.19;;;43.47;22.87